Tropical Cyclones
[Index]
Main Index Home Page Stock Weather Photos Extreme Storms Discussion Storm News and Storm Chasing Reports Tropical Cyclones / Hurricanes / Typhoons Weather Data and Links Wild Fires / Bushfires Weather Observation Techniques Weather Picture Catalogue Tornado Pictures and Reports Stock Video Footage and DVDs for sale
Season 1992-1993 Tropical Cyclone KEN Track Map
Season 1992-1993 Summaries: [BoM-AU] [JTWC-AU] [JTWC-SIO] [JTWC-SPAC] [JTWC-SH]
<<- Previous TC | JTWC 1992-1993 Season | Next TC ->>

click for intensity scale information  Lat/long Grid: Show Hide

 Date Labels: Show Hide

Joint Typhoon Warning Centre Cyclone Data

Name: KEN

17 Dec 1992 00:00 UTC to 23 Dec 1992 12:00 UTC

    date/time    lat    long     hPa   cat  kts
1992-12-17 00   11.2   100.2                  20          
1992-12-17 06   11.3    99.9                  20          
1992-12-17 12   11.4    99.7                  20          
1992-12-17 18   11.6    99.5                  25          
1992-12-18 00   11.8    99.3                  25          
1992-12-18 06   11.9    99.1                  25          
1992-12-18 12   12.1    98.8                  25          
1992-12-18 18   12.4    98.3                  25          
1992-12-19 00   12.5    97.6                  30          
1992-12-19 06   12.5    96.9                  35          
1992-12-19 12   12.6    96.0                  35          
1992-12-19 18   13.0    95.2            1     45          
1992-12-20 00   13.6    94.5            1     45          
1992-12-20 06   14.3    94.0            1     45          
1992-12-20 12   15.0    93.4            1     40          
1992-12-20 18   15.6    92.7            1     40          
1992-12-21 00   16.0    91.9            1     40          
1992-12-21 06   16.1    91.0            1     45          
1992-12-21 12   16.1    90.4            1     40          
1992-12-21 18   15.9    89.7            1     40          
1992-12-22 00   15.5    88.8            1     40          
1992-12-22 06   15.0    87.9            1     40          
1992-12-22 12   14.4    86.6                  35          
1992-12-22 18   13.9    85.3                  30          
1992-12-23 00   13.7    84.2                  25          
1992-12-23 06   13.5    83.1                  25          
1992-12-23 12   13.5    81.8                  25          
Winds are 1-min average.

Tropical cyclone tracks developed by Michael Bath using data from the Joint Typhoon Warning Centre Best Tracks and Google Maps.


[Australian Severe Weather index] [Copyright Notice] [Email Contacts] [Search This Site] [Privacy Policy]
Document: tropical_cyclone_ken.htm Updated: 18 September 2016